Midpark, Ohio
Current Conditions -  °F | °C
As of 10:51 PM on Sunday 21 Dec 2014 (Local Time) from KCLE Reporting Station
Broken Clouds Broken Clouds  
Wind Chill: 21°   Ceiling: 25000
Heat Index: 26°   Visibility: 7mi
Dew Point: 20°   Wind: 5mph
Humidity: 78%   Direction: 110°ESE
Pressure: 30.24"   Gusts: NA
Location:  41.3776°N, 81.7863°W
Report Text: KCLE 220351Z 11004KT 7SM BKN250 M03/M07 A3024 RMK AO2 SLP251 T10331067 $
Loading
Personal Weather Stations






























Interactive Weather Map New forecast layout! Learn more

10-Day Weather Forecast

Advertisements
Track Severe Weather on mobile